Time;durP1;ratioP1;P1;durP2;ratioP2;P2;SDS_P1;SDS_P2;PMS_P1;PMS_P2;Temp;Humidity;BMP_temperature;BMP_pressure;BME280_temperature;BME280_humidity;BME280_pressure;Samples;Min_cycle;Max_cycle;Signal;HPM_P1;HPM_P2
2021/10/30 00:00:15;;;;;;;28.75;20.48;;;10.90;92.70;;;;;;5075474;28;20032;-63
2021/10/30 00:02:42;;;;;;;33.70;23.77;;;10.90;92.70;;;;;;5075043;28;20058;-63
2021/10/30 00:05:09;;;;;;;33.63;23.23;;;10.80;92.70;;;;;;5074968;28;20506;-63
2021/10/30 00:07:35;;;;;;;31.83;22.20;;;10.80;92.70;;;;;;5075188;28;20036;-63
2021/10/30 00:10:01;;;;;;;31.95;21.48;;;10.80;92.70;;;;;;5074596;28;20074;-62
2021/10/30 00:12:27;;;;;;;33.03;22.10;;;10.70;92.70;;;;;;5074833;28;20067;-62
2021/10/30 00:14:52;;;;;;;30.23;21.60;;;10.80;92.80;;;;;;5090471;28;20028;-62
2021/10/30 00:17:18;;;;;;;30.75;21.67;;;10.80;92.80;;;;;;5095423;28;20491;-63
2021/10/30 00:19:43;;;;;;;34.92;22.88;;;10.80;92.80;;;;;;5093978;28;20020;-63
2021/10/30 00:22:09;;;;;;;32.35;21.70;;;10.80;92.80;;;;;;5093902;28;20040;-63
2021/10/30 00:24:35;;;;;;;31.65;22.02;;;10.80;92.80;;;;;;5080066;28;20090;-63
2021/10/30 00:27:02;;;;;;;34.90;23.80;;;10.70;92.80;;;;;;5074854;28;20113;-62
2021/10/30 00:29:28;;;;;;;33.30;23.58;;;10.70;92.80;;;;;;5074794;28;20016;-62
2021/10/30 00:31:55;;;;;;;31.95;22.83;;;10.70;92.80;;;;;;5074721;28;20027;-62
2021/10/30 00:34:21;;;;;;;31.60;22.00;;;10.70;92.80;;;;;;5074195;28;20325;-63
2021/10/30 00:36:47;;;;;;;34.17;23.58;;;10.70;92.90;;;;;;5075070;28;20476;-62
2021/10/30 00:39:12;;;;;;;31.80;23.33;;;10.70;92.90;;;;;;5074422;28;20146;-63
2021/10/30 00:41:38;;;;;;;36.83;24.88;;;10.70;92.90;;;;;;5074297;28;20477;-63
2021/10/30 00:44:10;;;;;;;36.05;23.77;;;10.70;92.90;;;;;;5073615;28;20138;-62
2021/10/30 00:46:40;;;;;;;33.30;23.15;;;10.70;92.90;;;;;;5074066;28;20043;-62
2021/10/30 00:49:08;;;;;;;32.67;22.92;;;10.70;93.00;;;;;;5074790;28;20033;-63
2021/10/30 00:51:36;;;;;;;35.60;25.48;;;10.70;93.00;;;;;;5073848;28;20039;-63
2021/10/30 00:54:02;;;;;;;35.03;23.77;;;10.60;93.00;;;;;;5081831;28;20112;-63
2021/10/30 00:56:31;;;;;;;37.83;24.27;;;10.70;93.00;;;;;;5094460;28;20031;-62
2021/10/30 00:58:59;;;;;;;32.03;23.75;;;10.60;93.00;;;;;;5084951;28;20036;-62
2021/10/30 01:01:24;;;;;;;37.25;24.17;;;10.60;93.10;;;;;;5074042;28;20024;-63
2021/10/30 01:03:51;;;;;;;34.80;24.55;;;10.60;93.10;;;;;;5073553;28;20052;-63
2021/10/30 01:06:17;;;;;;;37.63;24.13;;;10.60;93.10;;;;;;5074019;28;20443;-63
2021/10/30 01:08:43;;;;;;;34.92;24.17;;;10.50;93.10;;;;;;5074175;28;20054;-63
2021/10/30 01:11:09;;;;;;;36.40;25.40;;;10.60;93.20;;;;;;5074005;28;20137;-63
2021/10/30 01:13:35;;;;;;;35.10;23.10;;;10.50;93.20;;;;;;5078626;28;20093;-63
2021/10/30 01:16:01;;;;;;;38.45;24.27;;;10.50;93.20;;;;;;5094105;28;20032;-63
2021/10/30 01:18:26;;;;;;;35.30;23.83;;;10.50;93.20;;;;;;5091014;28;20050;-63
2021/10/30 01:20:52;;;;;;;33.28;24.90;;;10.50;93.20;;;;;;5093922;28;20055;-63
2021/10/30 01:23:18;;;;;;;36.70;24.77;;;10.50;93.20;;;;;;5092894;28;20040;-63
2021/10/30 01:25:45;;;;;;;37.20;24.98;;;10.50;93.20;;;;;;5086266;28;20027;-63
2021/10/30 01:28:11;;;;;;;36.53;24.55;;;10.50;93.30;;;;;;5093911;28;20508;-63
2021/10/30 01:30:36;;;;;;;37.53;24.80;;;10.40;93.30;;;;;;5091671;28;20038;-63
2021/10/30 01:33:05;;;;;;;35.33;24.23;;;10.40;93.30;;;;;;5089412;28;20055;-63
2021/10/30 01:35:35;;;;;;;37.75;25.33;;;10.40;93.30;;;;;;5090498;28;20040;-63
2021/10/30 01:38:02;;;;;;;33.65;24.08;;;10.40;93.40;;;;;;5073769;28;20071;-63
2021/10/30 01:40:32;;;;;;;37.05;23.83;;;10.40;93.40;;;;;;5074626;28;20035;-63
2021/10/30 01:43:02;;;;;;;39.38;23.38;;;10.40;93.40;;;;;;5099734;28;20399;-63
2021/10/30 01:45:29;;;;;;;34.15;25.80;;;10.40;93.40;;;;;;5106435;28;20066;-63
2021/10/30 01:47:56;;;;;;;36.50;26.08;;;10.40;93.40;;;;;;5072885;28;20108;-63
2021/10/30 01:50:22;;;;;;;37.42;25.38;;;10.30;93.40;;;;;;5073387;28;20366;-63
2021/10/30 01:52:49;;;;;;;37.90;24.88;;;10.40;93.50;;;;;;5093114;28;20380;-63
2021/10/30 01:55:16;;;;;;;36.00;24.25;;;10.30;93.50;;;;;;5092029;28;20111;-63
2021/10/30 01:57:42;;;;;;;38.67;26.23;;;10.30;93.40;;;;;;5072911;28;20032;-63
2021/10/30 02:00:09;;;;;;;40.95;27.15;;;10.30;93.50;;;;;;5072514;28;20027;-63
2021/10/30 02:02:35;;;;;;;37.10;26.00;;;10.30;93.50;;;;;;5091920;28;20097;-64
2021/10/30 02:05:01;;;;;;;43.33;26.75;;;10.30;93.50;;;;;;5093318;28;20111;-63
2021/10/30 02:07:26;;;;;;;37.85;25.05;;;10.30;93.60;;;;;;5073327;28;20119;-63
2021/10/30 02:09:52;;;;;;;35.45;26.17;;;10.20;93.60;;;;;;5072715;28;20025;-63
2021/10/30 02:12:18;;;;;;;36.83;26.00;;;10.20;93.50;;;;;;5072214;28;20028;-63
2021/10/30 02:14:44;;;;;;;38.38;26.08;;;10.20;93.60;;;;;;5087159;28;20522;-63
2021/10/30 02:17:09;;;;;;;38.72;27.60;;;10.10;93.60;;;;;;5075956;28;20079;-63
2021/10/30 02:19:35;;;;;;;40.58;26.17;;;10.10;93.60;;;;;;5072549;28;20033;-63
2021/10/30 02:22:00;;;;;;;37.42;26.05;;;10.10;93.60;;;;;;5080308;28;20118;-63
2021/10/30 02:24:26;;;;;;;41.17;27.35;;;10.10;93.70;;;;;;5092052;28;20020;-63
2021/10/30 02:26:52;;;;;;;37.42;26.65;;;10.10;93.70;;;;;;5092261;28;20111;-63
2021/10/30 02:29:18;;;;;;;37.40;26.13;;;10.00;93.70;;;;;;5092862;28;20150;-63
2021/10/30 02:31:43;;;;;;;41.03;26.90;;;10.00;93.70;;;;;;5091091;28;20043;-63
2021/10/30 02:34:09;;;;;;;47.30;26.85;;;10.00;93.80;;;;;;5092555;28;20020;-63
2021/10/30 02:36:35;;;;;;;38.58;26.60;;;10.00;93.80;;;;;;5074404;28;20534;-63
2021/10/30 02:39:00;;;;;;;42.25;27.40;;;10.00;93.80;;;;;;5072323;28;20028;-63
2021/10/30 02:41:26;;;;;;;38.90;26.65;;;10.00;93.90;;;;;;5072458;28;20115;-63
2021/10/30 02:43:51;;;;;;;43.50;27.88;;;10.00;93.90;;;;;;5071997;28;20028;-63
2021/10/30 02:46:17;;;;;;;38.85;25.83;;;9.90;93.90;;;;;;5072592;28;20108;-63
2021/10/30 02:48:42;;;;;;;40.10;26.65;;;9.90;93.90;;;;;;5072232;28;20370;-63
2021/10/30 02:51:08;;;;;;;40.85;27.45;;;9.90;93.90;;;;;;5072000;28;20024;-63
2021/10/30 02:53:34;;;;;;;40.60;28.15;;;9.90;94.00;;;;;;5071843;28;20036;-63
2021/10/30 02:55:59;;;;;;;39.97;29.30;;;9.90;94.00;;;;;;5071889;28;20028;-63
2021/10/30 02:58:25;;;;;;;41.58;27.58;;;9.80;94.00;;;;;;5071796;28;20074;-63
2021/10/30 03:00:50;;;;;;;39.70;26.65;;;9.90;94.00;;;;;;5072182;28;20068;-63
2021/10/30 03:03:16;;;;;;;38.80;27.25;;;9.80;94.00;;;;;;5071945;28;20655;-63
2021/10/30 03:05:41;;;;;;;38.75;27.02;;;9.80;94.00;;;;;;5071667;28;20029;-63
2021/10/30 03:08:07;;;;;;;43.72;26.88;;;9.80;94.10;;;;;;5071939;28;20024;-63
2021/10/30 03:10:32;;;;;;;39.08;26.73;;;9.80;94.10;;;;;;5071822;28;20455;-63
2021/10/30 03:12:58;;;;;;;36.53;25.67;;;9.80;94.10;;;;;;5071762;28;20028;-63
2021/10/30 03:15:23;;;;;;;39.38;27.33;;;9.80;94.20;;;;;;5071291;28;20013;-63
2021/10/30 03:17:49;;;;;;;40.63;26.08;;;9.80;94.20;;;;;;5071658;28;20028;-63
2021/10/30 03:20:14;;;;;;;37.75;25.13;;;9.80;94.20;;;;;;5071694;28;20047;-63
2021/10/30 03:22:40;;;;;;;38.80;26.45;;;9.80;94.30;;;;;;5070689;28;20067;-63
2021/10/30 03:25:06;;;;;;;35.33;24.92;;;9.80;94.20;;;;;;5076149;28;20368;-63
2021/10/30 03:27:32;;;;;;;40.00;25.83;;;9.80;94.20;;;;;;5091798;28;20089;-63
2021/10/30 03:29:58;;;;;;;40.25;27.23;;;9.80;94.20;;;;;;5089565;28;20016;-63
2021/10/30 03:32:23;;;;;;;39.83;26.38;;;9.80;94.20;;;;;;5092026;28;20055;-62
2021/10/30 03:34:48;;;;;;;40.85;26.20;;;9.70;94.20;;;;;;5087606;28;20104;-62
2021/10/30 03:37:14;;;;;;;34.60;24.80;;;9.70;94.30;;;;;;5071514;28;20017;-62
2021/10/30 03:39:39;;;;;;;38.38;26.02;;;9.70;94.20;;;;;;5071587;28;20025;-63
2021/10/30 03:42:05;;;;;;;36.08;25.00;;;9.70;94.20;;;;;;5069917;28;20370;-63
2021/10/30 03:44:31;;;;;;;37.72;27.38;;;9.60;94.20;;;;;;5075502;28;20502;-63
2021/10/30 03:46:57;;;;;;;38.15;25.58;;;9.60;94.30;;;;;;5071489;28;20025;-62
2021/10/30 03:49:22;;;;;;;40.60;25.88;;;9.60;94.30;;;;;;5071217;28;20043;-63
2021/10/30 03:51:48;;;;;;;40.90;26.83;;;9.50;94.30;;;;;;5072130;28;20039;-63
2021/10/30 03:54:13;;;;;;;38.03;25.13;;;9.50;94.30;;;;;;5071000;28;20461;-63
2021/10/30 03:56:39;;;;;;;36.10;24.75;;;9.50;94.30;;;;;;5088234;28;20073;-62
2021/10/30 03:59:04;;;;;;;40.95;26.42;;;9.50;94.40;;;;;;5091380;28;20115;-62
2021/10/30 04:01:30;;;;;;;37.03;26.33;;;9.50;94.40;;;;;;5074125;28;20111;-63
2021/10/30 04:03:55;;;;;;;36.35;24.23;;;9.40;94.40;;;;;;5071221;28;20037;-63
2021/10/30 04:06:21;;;;;;;41.03;26.92;;;9.50;94.40;;;;;;5086021;28;20119;-63
2021/10/30 04:08:46;;;;;;;35.70;24.88;;;9.50;94.40;;;;;;5091181;28;20059;-63
2021/10/30 04:11:12;;;;;;;33.88;23.45;;;9.40;94.40;;;;;;5076620;28;20020;-63
2021/10/30 04:13:38;;;;;;;40.30;24.65;;;9.40;94.40;;;;;;5070748;28;20116;-63
2021/10/30 04:16:03;;;;;;;34.92;23.25;;;9.40;94.50;;;;;;5083758;28;20035;-63
2021/10/30 04:18:29;;;;;;;40.33;24.40;;;9.40;94.50;;;;;;5091455;28;20020;-63
2021/10/30 04:20:55;;;;;;;38.42;24.55;;;9.40;94.50;;;;;;5078803;28;20043;-63
2021/10/30 04:23:20;;;;;;;34.35;23.63;;;9.40;94.60;;;;;;5069725;28;20471;-63
2021/10/30 04:25:46;;;;;;;41.88;24.50;;;9.40;94.60;;;;;;5081081;28;20081;-63
2021/10/30 04:28:11;;;;;;;35.47;23.17;;;9.30;94.60;;;;;;5089741;28;20070;-63
2021/10/30 04:30:37;;;;;;;35.95;23.73;;;9.30;94.60;;;;;;5080813;28;20032;-63
2021/10/30 04:33:04;;;;;;;33.30;23.13;;;9.30;94.70;;;;;;5069634;28;20017;-63
2021/10/30 04:35:29;;;;;;;33.50;21.85;;;9.30;94.70;;;;;;5073502;28;20028;-63
2021/10/30 04:37:55;;;;;;;36.25;24.13;;;9.30;94.70;;;;;;5074857;28;20012;-63
2021/10/30 04:40:20;;;;;;;35.25;23.77;;;9.30;94.70;;;;;;5074710;28;20028;-63
2021/10/30 04:42:46;;;;;;;33.92;23.88;;;9.30;94.70;;;;;;5074120;28;20090;-63
2021/10/30 04:45:11;;;;;;;34.20;23.60;;;9.30;94.80;;;;;;5074725;28;20020;-63
2021/10/30 04:47:38;;;;;;;35.47;23.48;;;9.30;94.80;;;;;;5074340;28;20048;-63
2021/10/30 04:50:04;;;;;;;36.63;23.33;;;9.30;94.80;;;;;;5087060;28;20016;-63
2021/10/30 04:52:30;;;;;;;29.88;22.92;;;9.30;94.80;;;;;;5074552;28;20029;-63
2021/10/30 04:54:55;;;;;;;36.47;24.45;;;9.30;94.90;;;;;;5076573;28;20511;-62
2021/10/30 04:57:21;;;;;;;35.28;22.98;;;9.30;94.90;;;;;;5094099;28;20027;-63
2021/10/30 04:59:46;;;;;;;40.50;24.13;;;9.30;94.90;;;;;;5092933;28;20194;-63
2021/10/30 05:02:11;;;;;;;32.38;22.83;;;9.30;94.90;;;;;;5094495;28;20031;-63
2021/10/30 05:04:37;;;;;;;35.28;23.85;;;9.30;94.90;;;;;;5091270;28;20032;-63
2021/10/30 05:07:03;;;;;;;35.88;23.67;;;9.30;94.90;;;;;;5094234;28;20058;-63
2021/10/30 05:09:28;;;;;;;35.35;23.20;;;9.30;94.90;;;;;;5091627;28;20031;-63
2021/10/30 05:11:54;;;;;;;34.25;22.50;;;9.30;94.90;;;;;;5073605;28;20516;-63
2021/10/30 05:14:19;;;;;;;37.33;23.05;;;9.20;94.90;;;;;;5073948;28;20020;-63
2021/10/30 05:16:45;;;;;;;35.00;24.13;;;9.20;94.90;;;;;;5092003;28;20123;-64
2021/10/30 05:19:10;;;;;;;34.15;23.58;;;9.20;94.90;;;;;;5094090;28;20369;-63
2021/10/30 05:21:36;;;;;;;33.92;22.48;;;9.20;94.90;;;;;;5091955;28;20055;-62
2021/10/30 05:24:01;;;;;;;33.80;23.20;;;9.20;94.90;;;;;;5093682;28;20038;-62
2021/10/30 05:26:27;;;;;;;31.80;23.20;;;9.20;94.90;;;;;;5091436;28;20020;-63
2021/10/30 05:28:52;;;;;;;36.22;24.33;;;9.10;95.00;;;;;;5093874;28;20024;-62
2021/10/30 05:31:19;;;;;;;34.47;23.67;;;9.10;95.00;;;;;;5077850;28;20512;-63
2021/10/30 05:33:44;;;;;;;36.15;25.17;;;9.10;95.00;;;;;;5073436;28;20020;-63
2021/10/30 05:36:11;;;;;;;33.72;23.30;;;9.10;95.10;;;;;;5073518;28;20655;-63
2021/10/30 05:38:43;;;;;;;30.90;22.42;;;9.00;95.00;;;;;;5072163;28;20357;-62
2021/10/30 05:41:09;;;;;;;35.70;22.60;;;9.00;95.10;;;;;;5086452;28;20123;-63
2021/10/30 05:43:37;;;;;;;33.60;24.38;;;9.00;95.10;;;;;;5092542;28;20127;-62
2021/10/30 05:46:04;;;;;;;34.25;23.42;;;9.00;95.10;;;;;;5076591;28;20054;-62
2021/10/30 05:48:30;;;;;;;35.10;23.42;;;9.00;95.10;;;;;;5073427;28;20025;-63
2021/10/30 05:50:55;;;;;;;33.13;22.58;;;9.00;95.10;;;;;;5084535;28;20357;-63
2021/10/30 05:53:21;;;;;;;33.67;23.35;;;8.90;95.10;;;;;;5092913;28;20091;-64
2021/10/30 05:55:46;;;;;;;35.15;23.45;;;8.90;95.10;;;;;;5081383;28;20623;-63
2021/10/30 05:58:12;;;;;;;37.03;23.80;;;8.90;95.20;;;;;;5073527;28;20017;-63
2021/10/30 06:00:37;;;;;;;34.78;22.90;;;8.90;95.20;;;;;;5072069;28;20070;-63
2021/10/30 06:03:03;;;;;;;34.78;23.40;;;8.90;95.20;;;;;;5080925;28;20028;-63
2021/10/30 06:05:28;;;;;;;37.42;24.25;;;8.90;95.30;;;;;;5083475;28;20020;-63
2021/10/30 06:07:55;;;;;;;35.65;22.75;;;8.90;95.30;;;;;;5087641;28;20034;-63
2021/10/30 06:10:20;;;;;;;36.75;23.25;;;8.80;95.30;;;;;;5090785;28;20031;-63
2021/10/30 06:12:46;;;;;;;34.75;23.88;;;8.80;95.40;;;;;;5092798;28;20024;-63
2021/10/30 06:15:11;;;;;;;36.22;24.30;;;8.80;95.40;;;;;;5086431;28;20027;-63
2021/10/30 06:17:37;;;;;;;34.95;23.73;;;8.70;95.40;;;;;;5072636;28;20368;-63
2021/10/30 06:20:03;;;;;;;38.08;22.92;;;8.70;95.50;;;;;;5072363;28;20074;-62
2021/10/30 06:22:29;;;;;;;41.30;23.33;;;8.70;95.60;;;;;;5072469;28;20465;-63
2021/10/30 06:24:54;;;;;;;34.00;23.60;;;8.70;95.60;;;;;;5072216;28;20036;-63
2021/10/30 06:27:20;;;;;;;33.30;22.35;;;8.70;95.60;;;;;;5072089;28;20020;-63
2021/10/30 06:29:46;;;;;;;33.75;22.95;;;8.70;95.70;;;;;;5071862;28;20477;-63
2021/10/30 06:32:11;;;;;;;33.88;21.92;;;8.70;95.70;;;;;;5072513;28;20028;-63
2021/10/30 06:34:37;;;;;;;29.50;21.98;;;8.80;95.80;;;;;;5072232;28;20074;-63
2021/10/30 06:37:02;;;;;;;33.00;22.70;;;8.80;95.70;;;;;;5072648;28;20372;-62
2021/10/30 06:39:28;;;;;;;32.25;21.20;;;8.80;95.70;;;;;;5071612;28;20484;-63
2021/10/30 06:41:53;;;;;;;32.10;21.42;;;8.80;95.70;;;;;;5072740;28;20316;-63
2021/10/30 06:44:20;;;;;;;35.30;22.73;;;8.80;95.70;;;;;;5072231;28;20054;-62
2021/10/30 06:46:47;;;;;;;28.85;20.90;;;8.80;95.80;;;;;;5073691;28;20507;-62
2021/10/30 06:49:14;;;;;;;31.75;22.92;;;8.80;95.80;;;;;;5081216;28;20039;-62
2021/10/30 06:51:40;;;;;;;31.85;22.73;;;8.80;95.80;;;;;;5075982;28;20024;-62
2021/10/30 06:54:07;;;;;;;36.28;22.27;;;8.80;95.90;;;;;;5074466;28;20072;-62
2021/10/30 06:56:38;;;;;;;29.33;21.00;;;8.80;96.10;;;;;;5077916;28;20024;-64
2021/10/30 06:59:04;;;;;;;32.60;22.98;;;8.80;96.00;;;;;;5079548;28;20079;-63
2021/10/30 07:01:32;;;;;;;30.20;20.75;;;8.80;96.00;;;;;;5078410;28;20078;-63
2021/10/30 07:03:58;;;;;;;31.48;21.00;;;8.80;96.00;;;;;;5070326;28;20036;-64
2021/10/30 07:06:23;;;;;;;32.40;22.10;;;8.80;96.00;;;;;;5080118;28;20016;-63
2021/10/30 07:08:49;;;;;;;32.85;21.77;;;8.80;96.00;;;;;;5080117;28;20437;-64
2021/10/30 07:11:15;;;;;;;32.85;22.85;;;8.90;96.10;;;;;;5081884;28;20035;-64
2021/10/30 07:13:41;;;;;;;32.55;22.42;;;8.90;96.10;;;;;;5078597;28;20024;-63
2021/10/30 07:16:06;;;;;;;33.00;21.58;;;8.90;96.10;;;;;;5079995;28;20034;-64
2021/10/30 07:18:32;;;;;;;29.60;21.63;;;9.00;96.20;;;;;;5072157;28;20024;-63
2021/10/30 07:20:57;;;;;;;34.22;22.80;;;9.00;96.30;;;;;;5079737;28;20032;-63
2021/10/30 07:23:23;;;;;;;34.72;22.15;;;9.00;96.20;;;;;;5071793;28;20031;-63
2021/10/30 07:25:49;;;;;;;29.48;20.17;;;9.00;96.30;;;;;;5080489;28;20023;-63
2021/10/30 07:28:15;;;;;;;30.10;21.63;;;9.10;96.50;;;;;;5080884;28;20034;-63
2021/10/30 07:30:41;;;;;;;29.73;20.15;;;9.10;96.30;;;;;;5074218;28;20336;-63
2021/10/30 07:33:06;;;;;;;31.88;21.33;;;9.10;96.20;;;;;;5087644;28;20607;-65
2021/10/30 07:35:32;;;;;;;31.60;22.25;;;9.20;96.30;;;;;;5071562;28;20017;-63
2021/10/30 07:38:00;;;;;;;31.17;20.35;;;9.20;96.30;;;;;;5075953;28;20028;-64
2021/10/30 07:40:29;;;;;;;30.63;20.92;;;9.20;96.30;;;;;;5072273;28;20074;-63
2021/10/30 07:42:55;;;;;;;32.10;21.17;;;9.30;96.30;;;;;;5077247;28;20305;-64
2021/10/30 07:45:21;;;;;;;30.65;20.58;;;9.30;96.20;;;;;;5072125;28;20103;-64
2021/10/30 07:47:47;;;;;;;27.60;19.83;;;9.40;96.20;;;;;;5077594;28;20107;-64
2021/10/30 07:50:13;;;;;;;30.67;20.40;;;9.40;96.20;;;;;;5081934;28;20020;-64
2021/10/30 07:52:39;;;;;;;31.75;21.08;;;9.50;96.30;;;;;;5087237;28;20044;-64
2021/10/30 07:55:05;;;;;;;30.88;20.23;;;9.50;96.10;;;;;;5079954;28;20028;-64
2021/10/30 07:57:31;;;;;;;31.83;20.77;;;9.60;96.00;;;;;;5070399;28;20064;-63
2021/10/30 07:59:56;;;;;;;37.75;20.88;;;9.70;96.00;;;;;;5072868;28;20416;-64
2021/10/30 08:02:22;;;;;;;28.52;19.52;;;9.70;96.00;;;;;;5079367;28;20062;-64
2021/10/30 08:04:47;;;;;;;30.35;18.70;;;9.70;96.00;;;;;;5070237;28;20024;-63
2021/10/30 08:07:13;;;;;;;30.10;20.55;;;9.80;96.10;;;;;;5070914;28;20046;-64
2021/10/30 08:09:42;;;;;;;27.33;19.23;;;9.90;95.90;;;;;;5073034;28;20032;-64
2021/10/30 08:12:14;;;;;;;28.75;19.42;;;9.90;95.90;;;;;;5086998;28;20082;-64
2021/10/30 08:14:42;;;;;;;26.63;20.38;;;10.00;95.90;;;;;;5082481;28;20021;-64
2021/10/30 08:17:09;;;;;;;31.33;19.30;;;10.00;95.90;;;;;;5092168;28;20072;-64
2021/10/30 08:19:34;;;;;;;27.30;18.77;;;10.10;95.90;;;;;;5090838;28;20111;-64
2021/10/30 08:22:02;;;;;;;26.83;18.63;;;10.10;95.80;;;;;;5078443;28;20123;-64
2021/10/30 08:24:27;;;;;;;29.63;19.92;;;10.20;95.80;;;;;;5088049;28;20028;-64
2021/10/30 08:26:53;;;;;;;27.92;19.23;;;10.30;95.70;;;;;;5081183;28;20484;-64
2021/10/30 08:29:19;;;;;;;25.42;17.35;;;10.40;95.60;;;;;;5083676;28;20056;-64
2021/10/30 08:31:44;;;;;;;24.08;18.45;;;10.40;95.50;;;;;;5073865;28;20157;-64
2021/10/30 08:34:09;;;;;;;26.40;17.73;;;10.50;95.40;;;;;;5074021;28;20035;-64
2021/10/30 08:36:35;;;;;;;24.63;17.98;;;10.60;95.40;;;;;;5081077;28;20035;-63
2021/10/30 08:39:02;;;;;;;24.95;17.25;;;10.70;95.40;;;;;;5074009;28;20173;-65
2021/10/30 08:41:28;;;;;;;23.83;17.38;;;10.70;95.30;;;;;;5073445;28;20029;-64
2021/10/30 08:43:54;;;;;;;25.48;19.20;;;10.80;95.10;;;;;;5073332;28;20044;-63
2021/10/30 08:46:19;;;;;;;24.80;18.35;;;10.80;95.20;;;;;;5075845;28;20020;-64
2021/10/30 08:48:45;;;;;;;26.02;17.48;;;10.90;95.10;;;;;;5081407;28;20134;-64
2021/10/30 08:51:11;;;;;;;26.80;17.92;;;11.00;95.00;;;;;;5075187;28;20113;-64
2021/10/30 08:53:37;;;;;;;23.73;17.15;;;11.00;95.00;;;;;;5090085;28;20197;-65
2021/10/30 08:56:03;;;;;;;23.15;17.10;;;11.10;94.90;;;;;;5072939;28;20036;-64
2021/10/30 08:58:30;;;;;;;25.17;17.25;;;11.10;94.70;;;;;;5077125;28;20417;-65
2021/10/30 09:01:03;;;;;;;25.27;16.60;;;11.20;94.60;;;;;;5076351;28;20028;-65
2021/10/30 09:03:29;;;;;;;24.70;17.58;;;11.30;94.50;;;;;;5081599;28;20040;-64
2021/10/30 09:05:58;;;;;;;23.02;16.02;;;11.40;94.50;;;;;;5076256;28;20385;-65
2021/10/30 09:08:27;;;;;;;22.67;15.77;;;11.40;94.40;;;;;;5078624;28;20166;-65
2021/10/30 09:11:01;;;;;;;22.85;15.90;;;11.40;94.20;;;;;;5073193;28;20052;-64
2021/10/30 09:13:30;;;;;;;21.63;15.68;;;11.50;94.00;;;;;;5073217;28;20028;-64
2021/10/30 09:15:56;;;;;;;25.08;16.50;;;11.60;93.90;;;;;;5086484;28;20062;-64
2021/10/30 09:18:28;;;;;;;23.70;15.85;;;11.60;93.90;;;;;;5076159;28;20055;-64
2021/10/30 09:20:56;;;;;;;21.95;15.18;;;11.80;93.90;;;;;;5077507;28;20029;-64
2021/10/30 09:23:26;;;;;;;20.00;15.45;;;11.80;93.80;;;;;;5077821;28;20040;-64
2021/10/30 09:25:58;;;;;;;19.52;15.25;;;11.80;93.70;;;;;;5081173;28;20035;-64
2021/10/30 09:28:25;;;;;;;21.33;15.23;;;11.90;93.50;;;;;;5084301;28;20039;-64
2021/10/30 09:31:03;;;;;;;24.38;15.65;;;12.00;93.50;;;;;;5073594;28;20174;-64
2021/10/30 09:33:31;;;;;;;20.88;14.70;;;12.00;93.40;;;;;;5077086;28;20072;-64
2021/10/30 09:36:10;;;;;;;19.42;14.50;;;12.10;93.30;;;;;;5081008;28;20491;-64
2021/10/30 09:38:42;;;;;;;19.50;14.38;;;12.20;93.30;;;;;;5073140;28;20036;-64
2021/10/30 09:41:49;;;;;;;22.42;15.52;;;12.20;93.10;;;;;;5076875;28;20445;-64
2021/10/30 09:44:25;;;;;;;21.45;15.35;;;12.30;93.10;;;;;;5010131;28;20141;-64
2021/10/30 09:46:55;;;;;;;20.20;15.40;;;12.40;92.70;;;;;;4987795;28;20030;-64
2021/10/30 09:49:28;;;;;;;23.25;15.50;;;12.40;92.70;;;;;;5056191;28;20127;-64
2021/10/30 09:51:55;;;;;;;20.10;14.10;;;12.50;92.70;;;;;;5089997;28;20032;-64
2021/10/30 09:54:38;;;;;;;23.67;16.38;;;12.50;92.50;;;;;;5090347;28;20407;-64
2021/10/30 09:57:10;;;;;;;22.20;15.98;;;12.60;92.50;;;;;;5073180;28;20025;-64
2021/10/30 09:59:39;;;;;;;22.88;15.60;;;12.60;92.30;;;;;;5073356;28;20140;-64
2021/10/30 10:02:06;;;;;;;23.05;15.50;;;12.70;92.30;;;;;;5087356;28;20032;-64
2021/10/30 10:04:33;;;;;;;19.67;14.05;;;12.70;92.10;;;;;;5080924;28;20032;-64
2021/10/30 10:07:00;;;;;;;19.13;15.20;;;12.70;91.90;;;;;;5072694;28;20051;-64
2021/10/30 10:09:25;;;;;;;19.33;14.30;;;12.80;91.90;;;;;;5072748;28;20115;-64
2021/10/30 10:11:52;;;;;;;17.83;12.93;;;12.80;91.80;;;;;;5072689;28;20064;-64
2021/10/30 10:14:20;;;;;;;23.05;14.85;;;12.80;91.70;;;;;;5090413;28;20043;-64
2021/10/30 10:16:50;;;;;;;20.55;13.82;;;12.80;91.60;;;;;;5086458;28;20499;-65
2021/10/30 10:19:17;;;;;;;18.30;13.77;;;12.90;91.70;;;;;;5082905;28;20546;-64
2021/10/30 10:21:44;;;;;;;18.70;14.38;;;12.90;91.40;;;;;;5074862;28;20051;-65
2021/10/30 10:24:15;;;;;;;20.00;13.88;;;13.00;91.30;;;;;;5085387;28;20380;-64
2021/10/30 10:26:52;;;;;;;18.55;13.98;;;12.90;91.30;;;;;;5092178;28;20051;-63
2021/10/30 10:29:34;;;;;;;19.50;14.05;;;13.00;91.20;;;;;;5076741;28;20036;-63
2021/10/30 10:32:20;;;;;;;19.85;14.25;;;13.00;91.30;;;;;;5075536;28;20077;-63
2021/10/30 10:34:47;;;;;;;20.15;14.13;;;13.00;91.20;;;;;;5072053;28;20058;-64
2021/10/30 10:37:14;;;;;;;18.83;15.10;;;13.10;91.20;;;;;;5076833;28;20036;-64
2021/10/30 10:39:40;;;;;;;20.25;14.05;;;13.10;91.10;;;;;;5074268;28;20028;-64
2021/10/30 10:42:36;;;;;;;21.42;14.25;;;13.20;91.30;;;;;;5072003;28;20036;-64
2021/10/30 10:45:06;;;;;;;;;;;13.20;91.10;;;;;;5080115;28;20036;-64
2021/10/30 10:47:35;;;;;;;20.65;13.57;;;13.30;91.30;;;;;;5070843;28;20296;-64
2021/10/30 10:50:13;;;;;;;18.35;13.05;;;13.30;91.00;;;;;;5078164;28;20077;-64
2021/10/30 10:53:01;;;;;;;18.60;14.13;;;13.40;90.90;;;;;;5071459;28;20618;-64
2021/10/30 10:55:27;;;;;;;18.17;13.45;;;13.40;90.70;;;;;;5070118;28;20071;-64
2021/10/30 10:57:59;;;;;;;19.40;14.82;;;13.50;90.40;;;;;;5070583;28;20029;-64
2021/10/30 11:00:25;;;;;;;18.25;13.32;;;13.50;90.20;;;;;;5077369;28;20028;-64
2021/10/30 11:02:50;;;;;;;18.90;12.80;;;13.60;90.20;;;;;;5075858;28;20511;-63
2021/10/30 11:05:22;;;;;;;19.38;12.95;;;13.60;90.10;;;;;;5076875;28;20028;-64
2021/10/30 11:07:50;;;;;;;18.58;13.13;;;13.60;90.10;;;;;;5088735;28;20032;-64
2021/10/30 11:10:23;;;;;;;19.52;13.05;;;13.70;90.10;;;;;;5070629;28;20111;-64
2021/10/30 11:13:05;;;;;;;20.13;13.82;;;13.80;90.10;;;;;;5070732;28;20032;-64
2021/10/30 11:15:52;;;;;;;17.45;12.75;;;13.80;90.00;;;;;;5080137;28;20028;-64
2021/10/30 11:18:30;;;;;;;21.77;13.40;;;13.90;90.10;;;;;;5070970;28;20028;-64
2021/10/30 11:21:20;;;;;;;15.82;12.60;;;14.00;89.80;;;;;;5071690;28;20628;-65
2021/10/30 11:23:50;;;;;;;18.58;14.18;;;14.00;89.40;;;;;;5074836;28;20055;-65
2021/10/30 11:26:30;;;;;;;25.02;14.45;;;14.10;89.40;;;;;;5073511;28;20366;-64
2021/10/30 11:29:10;;;;;;;17.77;13.18;;;14.10;88.80;;;;;;5072283;28;20078;-63
2021/10/30 11:31:37;;;;;;;19.70;12.73;;;14.20;88.40;;;;;;5077249;28;20506;-64
2021/10/30 11:34:05;;;;;;;18.10;13.90;;;14.20;88.30;;;;;;5083483;28;20086;-64
2021/10/30 11:36:31;;;;;;;19.50;13.40;;;14.30;87.80;;;;;;5076631;28;20111;-64
2021/10/30 11:38:59;;;;;;;18.50;12.57;;;14.40;87.90;;;;;;5077631;28;20539;-64
2021/10/30 11:41:27;;;;;;;19.95;13.25;;;14.40;87.80;;;;;;5084018;28;20026;-64
2021/10/30 11:44:08;;;;;;;19.15;13.05;;;14.40;87.60;;;;;;5079160;28;20082;-64
2021/10/30 11:46:45;;;;;;;17.77;12.85;;;14.50;87.40;;;;;;5084474;28;20454;-64
2021/10/30 11:49:33;;;;;;;20.17;13.68;;;14.50;87.60;;;;;;5087885;28;20024;-65
2021/10/30 11:52:04;;;;;;;16.90;12.63;;;14.60;87.30;;;;;;5074702;28;20039;-65
2021/10/30 11:54:30;;;;;;;21.23;12.95;;;14.60;86.90;;;;;;5083396;28;20058;-65
2021/10/30 11:56:58;;;;;;;17.75;14.48;;;14.70;86.90;;;;;;5074547;28;20029;-65
2021/10/30 11:59:24;;;;;;;21.00;13.38;;;14.70;86.70;;;;;;5074947;28;20056;-64
2021/10/30 12:01:49;;;;;;;16.80;13.05;;;14.70;86.80;;;;;;5079149;28;20092;-65
2021/10/30 12:04:22;;;;;;;16.52;12.57;;;14.80;86.50;;;;;;5077912;28;20028;-65
2021/10/30 12:06:53;;;;;;;18.30;12.88;;;14.80;87.20;;;;;;5074417;28;20112;-65
2021/10/30 12:09:43;;;;;;;20.98;13.73;;;14.80;86.90;;;;;;5082977;28;20024;-65
2021/10/30 12:12:22;;;;;;;18.27;12.80;;;14.80;86.60;;;;;;5074374;28;20669;-65
2021/10/30 12:14:52;;;;;;;17.10;12.43;;;14.90;86.40;;;;;;5084787;28;20380;-64
2021/10/30 12:17:28;;;;;;;18.08;13.30;;;14.90;86.20;;;;;;5074134;28;20604;-64
2021/10/30 12:20:00;;;;;;;16.65;13.07;;;15.00;86.10;;;;;;5076755;28;20024;-65
2021/10/30 12:22:36;;;;;;;18.60;13.10;;;15.00;85.90;;;;;;5076317;28;20496;-65
2021/10/30 12:25:09;;;;;;;18.27;12.82;;;15.00;86.30;;;;;;5078802;28;20079;-65
2021/10/30 12:27:48;;;;;;;16.05;11.82;;;15.10;85.70;;;;;;5079695;28;20297;-65
2021/10/30 12:30:15;;;;;;;17.05;12.95;;;15.10;85.50;;;;;;5084932;28;20036;-63
2021/10/30 12:32:43;;;;;;;19.25;12.60;;;15.10;84.90;;;;;;5077444;28;20039;-64